createdAt,value
2022-09-02T00:01:33.196Z,1.27
2022-09-02T00:04:05.568Z,1.10
2022-09-02T00:06:33.285Z,1.20
2022-09-02T00:09:01.183Z,1.10
2022-09-02T00:11:29.478Z,1.20
2022-09-02T00:13:57.254Z,1.30
2022-09-02T00:16:25.024Z,1.48
2022-09-02T00:18:53.336Z,1.50
2022-09-02T00:21:21.620Z,1.50
2022-09-02T00:23:49.403Z,1.35
2022-09-02T00:26:17.237Z,1.35
2022-09-02T00:28:51.062Z,1.30
2022-09-02T00:31:23.243Z,1.33
2022-09-02T00:33:52.134Z,1.20
2022-09-02T00:36:19.583Z,1.23
2022-09-02T00:38:46.749Z,1.55
2022-09-02T00:41:14.375Z,1.38
2022-09-02T00:43:44.019Z,1.10
2022-09-02T00:46:12.306Z,1.17
2022-09-02T00:48:41.496Z,1.38
2022-09-02T00:51:10.315Z,1.15
2022-09-02T00:53:39.422Z,1.10
2022-09-02T00:56:09.374Z,1.38
2022-09-02T00:58:38.216Z,1.27
2022-09-02T01:01:05.406Z,1.20
2022-09-02T01:03:33.500Z,0.90
2022-09-02T01:06:02.351Z,1.10
2022-09-02T01:08:33.163Z,1.08
2022-09-02T01:11:00.854Z,1.25
2022-09-02T01:13:30.496Z,1.30
2022-09-02T01:16:03.238Z,1.17
2022-09-02T01:18:31.563Z,1.13
2022-09-02T01:21:00.380Z,1.13
2022-09-02T01:23:28.371Z,1.40
2022-09-02T01:25:58.676Z,1.40
2022-09-02T01:28:26.311Z,1.25
2022-09-02T01:30:54.983Z,1.00
2022-09-02T01:33:23.193Z,1.13
2022-09-02T01:35:52.676Z,1.40
2022-09-02T01:38:20.461Z,1.13
2022-09-02T01:40:48.174Z,1.15
2022-09-02T01:43:16.992Z,1.23
2022-09-02T01:45:45.592Z,1.10
2022-09-02T01:48:13.134Z,1.35
2022-09-02T01:50:45.542Z,1.30
2022-09-02T01:53:15.010Z,0.98
2022-09-02T01:55:42.557Z,1.30
2022-09-02T01:58:10.129Z,1.25
2022-09-02T02:00:37.445Z,1.10
2022-09-02T02:03:05.295Z,1.23
2022-09-02T02:05:33.547Z,1.10
2022-09-02T02:08:00.714Z,1.38
2022-09-02T02:10:28.146Z,1.35
2022-09-02T02:12:55.586Z,1.20
2022-09-02T02:17:49.501Z,1.30
2022-09-02T02:20:18.270Z,1.23
2022-09-02T02:22:46.031Z,1.15
2022-09-02T02:25:15.334Z,1.45
2022-09-02T02:27:43.817Z,1.27
2022-09-02T02:30:12.499Z,1.33
2022-09-02T02:32:39.859Z,1.30
2022-09-02T02:35:08.098Z,1.20
2022-09-02T02:37:35.174Z,1.42
2022-09-02T02:40:02.328Z,1.40
2022-09-02T02:42:30.518Z,1.20
2022-09-02T02:44:58.299Z,1.30
2022-09-02T02:47:26.836Z,1.40
2022-09-02T02:49:53.961Z,1.23
2022-09-02T02:52:21.162Z,1.42
2022-09-02T02:54:48.287Z,1.20
2022-09-02T02:57:15.614Z,1.20
2022-09-02T02:59:43.340Z,1.10
2022-09-02T03:02:10.999Z,1.20
2022-09-02T03:04:39.882Z,1.00
2022-09-02T03:07:07.345Z,1.05
2022-09-02T03:09:34.375Z,1.20
2022-09-02T03:12:01.476Z,1.27
2022-09-02T03:14:28.552Z,1.20
2022-09-02T03:16:55.629Z,1.23
2022-09-02T03:19:22.696Z,1.35
2022-09-02T03:21:50.146Z,1.30
2022-09-02T03:24:17.504Z,1.13
2022-09-02T03:26:44.971Z,1.23
2022-09-02T03:29:12.015Z,1.50
2022-09-02T03:31:39.282Z,1.50
2022-09-02T03:34:06.963Z,1.50
2022-09-02T03:36:35.912Z,1.30
2022-09-02T03:39:04.122Z,1.60
2022-09-02T03:41:31.194Z,1.20
2022-09-02T03:43:59.193Z,1.10
2022-09-02T03:46:26.474Z,1.30
2022-09-02T03:48:53.817Z,1.27
2022-09-02T03:51:21.571Z,1.20
2022-09-02T03:53:48.841Z,1.20
2022-09-02T03:56:16.347Z,1.30
2022-09-02T03:58:46.423Z,1.35
2022-09-02T04:01:14.977Z,1.40
2022-09-02T04:03:42.548Z,1.30
2022-09-02T04:06:13.083Z,1.40
2022-09-02T04:08:41.512Z,1.40
2022-09-02T04:11:09.547Z,1.58
2022-09-02T04:13:37.331Z,1.30
2022-09-02T04:16:10.499Z,1.42
2022-09-02T04:18:38.117Z,1.40
2022-09-02T04:21:05.491Z,1.70
2022-09-02T04:23:33.102Z,1.20
2022-09-02T04:26:04.183Z,1.23
2022-09-02T04:28:31.347Z,1.10
2022-09-02T04:30:58.427Z,1.02
2022-09-02T04:33:25.866Z,1.30
2022-09-02T04:35:53.065Z,1.02
2022-09-02T04:38:20.515Z,1.15
2022-09-02T04:40:48.350Z,1.20
2022-09-02T04:43:15.455Z,1.08
2022-09-02T04:45:43.906Z,1.30
2022-09-02T04:48:11.535Z,1.17
2022-09-02T04:50:43.094Z,1.15
2022-09-02T04:53:10.254Z,1.20
2022-09-02T04:55:39.916Z,1.42
2022-09-02T04:58:07.197Z,1.42
2022-09-02T05:00:34.491Z,1.42
2022-09-02T05:03:01.684Z,1.30
2022-09-02T05:05:28.847Z,1.48
2022-09-02T05:07:56.239Z,1.30
2022-09-02T05:10:23.364Z,1.33
2022-09-02T05:12:51.616Z,1.30
2022-09-02T05:15:19.519Z,1.27
2022-09-02T05:17:46.714Z,1.80
2022-09-02T05:20:13.962Z,1.13
2022-09-02T05:22:41.569Z,1.00
2022-09-02T05:25:09.875Z,1.20
2022-09-02T05:27:37.770Z,1.00
2022-09-02T05:30:05.423Z,1.33
2022-09-02T05:32:37.437Z,1.25
2022-09-02T05:35:05.133Z,1.20
2022-09-02T05:37:32.455Z,1.20
2022-09-02T05:39:59.921Z,1.42
2022-09-02T05:42:29.833Z,1.42
2022-09-02T05:44:57.119Z,1.45
2022-09-02T05:47:25.108Z,1.30
2022-09-02T05:49:52.334Z,1.50
2022-09-02T05:52:19.500Z,1.00
2022-09-02T05:54:46.868Z,1.20
2022-09-02T05:57:15.847Z,1.35
2022-09-02T05:59:44.079Z,1.58
2022-09-02T06:02:12.221Z,1.08
2022-09-02T06:04:40.538Z,1.20
2022-09-02T06:07:08.144Z,1.30
2022-09-02T06:09:38.832Z,1.30
2022-09-02T06:12:06.164Z,1.10
2022-09-02T06:14:33.504Z,1.13
2022-09-02T06:17:00.753Z,1.10
2022-09-02T06:19:32.552Z,1.20
2022-09-02T06:22:00.934Z,1.27
2022-09-02T06:24:28.889Z,1.20
2022-09-02T06:26:56.967Z,1.55
2022-09-02T06:29:25.116Z,1.13
2022-09-02T06:31:53.390Z,1.00
2022-09-02T06:34:21.816Z,1.20
2022-09-02T06:36:51.137Z,1.10
2022-09-02T06:39:19.564Z,1.20
2022-09-02T06:41:48.906Z,1.10
2022-09-02T06:44:16.253Z,1.08
2022-09-02T06:46:45.139Z,1.10
2022-09-02T06:49:13.212Z,1.13
2022-09-02T06:51:42.190Z,1.00
2022-09-02T06:54:10.987Z,1.05
2022-09-02T06:56:43.928Z,1.20
2022-09-02T06:59:14.317Z,1.30
2022-09-02T07:01:41.415Z,1.40
2022-09-02T07:04:27.819Z,1.15
2022-09-02T07:06:55.926Z,1.17
2022-09-02T07:09:31.618Z,1.50
2022-09-02T07:12:04.190Z,1.35
2022-09-02T07:14:33.059Z,1.40
2022-09-02T07:17:00.492Z,1.30
2022-09-02T07:19:28.011Z,1.08
2022-09-02T07:21:55.187Z,1.33
2022-09-02T07:24:22.694Z,1.30
2022-09-02T07:26:49.907Z,1.20
2022-09-02T07:29:23.088Z,1.00
2022-09-02T07:31:50.237Z,1.30
2022-09-02T07:34:17.920Z,1.10
2022-09-02T07:36:45.884Z,1.02
2022-09-02T07:39:13.727Z,1.00
2022-09-02T07:41:41.899Z,1.20
2022-09-02T07:44:09.009Z,1.02
2022-09-02T07:46:36.787Z,1.40
2022-09-02T07:49:08.996Z,1.30
2022-09-02T07:51:38.755Z,1.20
2022-09-02T07:54:07.157Z,1.23
2022-09-02T07:56:34.331Z,1.30
2022-09-02T07:59:01.749Z,1.40
2022-09-02T08:01:29.767Z,1.27
2022-09-02T08:03:59.363Z,1.40
2022-09-02T08:06:34.865Z,1.38
2022-09-02T08:09:03.955Z,1.40
2022-09-02T08:11:32.550Z,1.30
2022-09-02T08:14:00.655Z,1.52
2022-09-02T08:16:28.918Z,1.48
2022-09-02T08:18:56.051Z,1.33
2022-09-02T08:21:25.785Z,1.27
2022-09-02T08:23:53.063Z,1.70
2022-09-02T08:26:22.403Z,1.90
2022-09-02T08:28:50.767Z,1.50
2022-09-02T08:31:18.566Z,1.60
2022-09-02T08:33:45.699Z,1.50
2022-09-02T08:36:14.957Z,1.80
2022-09-02T08:38:43.045Z,1.55
2022-09-02T08:41:39.947Z,1.85
2022-09-02T08:44:08.200Z,1.83
2022-09-02T08:46:36.117Z,1.58
2022-09-02T08:49:04.331Z,1.60
2022-09-02T08:51:37.228Z,1.60
2022-09-02T08:54:21.718Z,1.70
2022-09-02T08:56:51.742Z,1.95
2022-09-02T08:59:23.272Z,1.40
2022-09-02T09:01:54.222Z,1.90
2022-09-02T09:04:21.523Z,1.60
2022-09-02T09:06:56.282Z,1.77
2022-09-02T09:09:23.628Z,1.48
2022-09-02T09:11:56.424Z,2.00
2022-09-02T09:14:28.731Z,1.90
2022-09-02T09:17:07.076Z,1.42
2022-09-02T09:19:37.397Z,1.77
2022-09-02T09:22:07.939Z,2.10
2022-09-02T09:24:42.887Z,1.70
2022-09-02T09:27:13.193Z,1.88
2022-09-02T09:29:40.466Z,1.92
2022-09-02T09:32:14.189Z,1.80
2022-09-02T09:34:53.995Z,1.60
2022-09-02T09:37:35.220Z,1.83
2022-09-02T09:40:21.672Z,1.80
2022-09-02T09:43:14.677Z,1.60
2022-09-02T09:45:45.915Z,2.00
2022-09-02T09:48:15.828Z,1.88
2022-09-02T09:50:46.247Z,1.80
2022-09-02T09:53:19.123Z,1.60
2022-09-02T09:58:13.611Z,1.88
2022-09-02T10:00:41.327Z,1.85
2022-09-02T10:03:08.779Z,2.10
2022-09-02T10:05:41.010Z,1.60
2022-09-02T10:08:17.697Z,1.73
2022-09-02T10:10:56.919Z,2.10
2022-09-02T10:13:25.809Z,1.90
2022-09-02T10:16:01.792Z,2.20
2022-09-02T10:18:49.305Z,2.00
2022-09-02T10:21:22.267Z,2.40
2022-09-02T10:24:13.585Z,1.70
2022-09-02T10:26:43.505Z,2.00
2022-09-02T10:29:26.085Z,1.83
2022-09-02T10:31:53.429Z,2.05
2022-09-02T10:34:26.614Z,1.80
2022-09-02T10:37:09.280Z,1.70
2022-09-02T10:39:55.062Z,1.83
2022-09-02T10:42:28.151Z,2.10
2022-09-02T10:44:58.783Z,2.05
2022-09-02T10:47:35.220Z,2.00
2022-09-02T10:50:21.647Z,1.90
2022-09-02T10:53:02.655Z,2.03
2022-09-02T10:58:07.977Z,1.77
2022-09-02T11:00:38.666Z,1.70
2022-09-02T11:03:09.337Z,1.77
2022-09-02T11:05:39.834Z,1.75
2022-09-02T11:08:09.803Z,1.90
2022-09-02T11:10:42.551Z,1.75
2022-09-02T11:15:40.277Z,1.55
2022-09-02T11:18:19.619Z,1.63
2022-09-02T11:20:46.610Z,1.60
2022-09-02T11:23:25.882Z,2.15
2022-09-02T11:25:56.714Z,1.70
2022-09-02T11:28:43.844Z,1.60
2022-09-02T11:31:15.988Z,1.67
2022-09-02T11:36:33.425Z,1.58
2022-09-02T11:39:03.832Z,1.58
2022-09-02T11:41:39.938Z,1.50
2022-09-02T11:44:07.189Z,1.80
2022-09-02T11:46:36.977Z,1.60
2022-09-02T11:49:19.725Z,1.70
2022-09-02T11:51:46.807Z,1.70
2022-09-02T11:54:16.707Z,1.85
2022-09-02T11:56:49.439Z,1.70
2022-09-02T12:01:51.444Z,1.65
2022-09-02T12:04:58.793Z,1.63
2022-09-02T12:07:11.929Z,1.70
2022-09-02T12:09:46.933Z,1.50
2022-09-02T12:12:34.431Z,1.70
2022-09-02T12:15:03.903Z,1.50
2022-09-02T12:17:38.086Z,1.67
2022-09-02T12:20:07.909Z,1.77
2022-09-02T12:22:39.610Z,1.42
2022-09-02T12:25:27.416Z,1.60
2022-09-02T12:28:23.911Z,1.70
2022-09-02T12:31:02.043Z,1.30
2022-09-02T12:33:32.796Z,1.50
2022-09-02T12:36:00.465Z,1.60
2022-09-02T12:38:27.935Z,1.50
2022-09-02T12:40:57.597Z,1.63
2022-09-02T12:43:26.878Z,1.55
2022-09-02T12:45:59.860Z,1.73
2022-09-02T12:48:38.545Z,1.95
2022-09-02T12:51:06.462Z,1.60
2022-09-02T12:53:39.111Z,1.70
2022-09-02T12:56:23.594Z,1.52
2022-09-02T12:58:57.752Z,1.70
2022-09-02T13:01:30.913Z,1.80
2022-09-02T13:04:12.676Z,1.63
2022-09-02T13:06:54.502Z,1.75
2022-09-02T13:09:29.776Z,1.92
2022-09-02T13:12:17.635Z,1.90
2022-09-02T13:14:50.954Z,1.83
2022-09-02T13:17:39.424Z,1.70
2022-09-02T13:20:09.883Z,1.77
2022-09-02T13:22:39.759Z,1.90
2022-09-02T13:25:23.825Z,1.75
2022-09-02T13:28:14.567Z,1.85
2022-09-02T13:30:41.607Z,1.50
2022-09-02T13:33:12.442Z,1.70
2022-09-02T13:35:42.471Z,1.80
2022-09-02T13:38:13.684Z,1.70
2022-09-02T13:40:43.781Z,1.60
2022-09-02T13:43:13.969Z,1.67
2022-09-02T13:45:43.664Z,1.63
2022-09-02T13:48:15.443Z,1.60
2022-09-02T13:50:49.655Z,1.60
2022-09-02T13:53:49.114Z,1.90
2022-09-02T13:56:25.318Z,1.80
2022-09-02T13:58:53.483Z,1.67
2022-09-02T14:01:25.624Z,1.52
2022-09-02T14:03:53.949Z,1.50
2022-09-02T14:06:26.327Z,1.50
2022-09-02T14:08:55.583Z,1.77
2022-09-02T14:11:22.920Z,1.58
2022-09-02T14:13:50.854Z,1.70
2022-09-02T14:16:25.382Z,1.60
2022-09-02T14:19:07.673Z,1.85
2022-09-02T14:21:35.490Z,1.58
2022-09-02T14:24:02.902Z,1.70
2022-09-02T14:26:38.126Z,1.70
2022-09-02T14:29:09.043Z,1.70
2022-09-02T14:31:37.786Z,1.75
2022-09-02T14:34:06.656Z,1.80
2022-09-02T14:36:37.901Z,1.42
2022-09-02T14:39:15.736Z,1.60
2022-09-02T14:41:46.124Z,1.58
2022-09-02T14:44:16.549Z,1.63
2022-09-02T14:46:57.540Z,2.15
2022-09-02T14:49:27.640Z,1.83
2022-09-02T14:51:55.703Z,1.60
2022-09-02T14:54:38.114Z,1.95
2022-09-02T14:57:06.317Z,1.90
2022-09-02T14:59:33.600Z,1.90
2022-09-02T15:02:01.087Z,1.80
2022-09-02T15:04:28.536Z,1.90
2022-09-02T15:06:56.681Z,1.85
2022-09-02T15:09:24.572Z,1.80
2022-09-02T15:11:53.746Z,1.88
2022-09-02T15:14:21.127Z,1.50
2022-09-02T15:16:49.403Z,1.67
2022-09-02T15:19:16.599Z,1.67
2022-09-02T15:21:43.701Z,1.52
2022-09-02T15:24:11.017Z,1.80
2022-09-02T15:26:38.246Z,1.70
2022-09-02T15:29:05.504Z,1.85
2022-09-02T15:31:32.629Z,1.73
2022-09-02T15:33:59.911Z,1.90
2022-09-02T15:36:27.685Z,1.80
2022-09-02T15:38:55.015Z,1.98
2022-09-02T15:41:24.062Z,1.92
2022-09-02T15:43:54.653Z,1.83
2022-09-02T15:46:23.577Z,1.70
2022-09-02T15:48:51.300Z,1.83
2022-09-02T15:51:19.991Z,1.73
2022-09-02T15:53:49.182Z,2.10
2022-09-02T15:56:17.047Z,1.90
2022-09-02T15:58:44.953Z,2.28
2022-09-02T16:01:12.721Z,1.85
2022-09-02T16:03:40.665Z,1.88
2022-09-02T16:06:11.483Z,1.77
2022-09-02T16:08:38.689Z,1.80
2022-09-02T16:11:09.054Z,1.67
2022-09-02T16:13:36.940Z,1.88
2022-09-02T16:16:08.376Z,1.60
2022-09-02T16:18:36.098Z,1.73
2022-09-02T16:21:04.735Z,2.00
2022-09-02T16:23:31.880Z,1.77
2022-09-02T16:26:08.344Z,1.65
2022-09-02T16:28:36.458Z,1.92
2022-09-02T16:31:03.902Z,1.67
2022-09-02T16:33:31.330Z,2.08
2022-09-02T16:35:59.167Z,2.00
2022-09-02T16:38:26.305Z,1.88
2022-09-02T16:40:54.061Z,1.70
2022-09-02T16:43:24.658Z,1.80
2022-09-02T16:45:52.844Z,1.63
2022-09-02T16:48:25.196Z,1.50
2022-09-02T16:50:52.908Z,1.67
2022-09-02T16:53:20.446Z,1.58
2022-09-02T16:55:48.053Z,1.67
2022-09-02T16:58:15.485Z,1.85
2022-09-02T17:00:42.624Z,1.80
2022-09-02T17:03:13.073Z,1.60
2022-09-02T17:05:40.419Z,1.67
2022-09-02T17:08:07.715Z,1.70
2022-09-02T17:10:36.107Z,1.65
2022-09-02T17:13:03.578Z,1.83
2022-09-02T17:15:31.666Z,1.73
2022-09-02T17:17:58.843Z,1.70
2022-09-02T17:20:26.488Z,2.03
2022-09-02T17:22:53.679Z,1.90
2022-09-02T17:25:20.871Z,1.88
2022-09-02T17:27:48.530Z,1.70
2022-09-02T17:30:15.731Z,1.90
2022-09-02T17:32:42.859Z,1.52
2022-09-02T17:35:10.628Z,1.73
2022-09-02T17:37:38.509Z,1.80
2022-09-02T17:40:06.622Z,1.80
2022-09-02T17:42:34.456Z,1.80
2022-09-02T17:45:01.760Z,1.60
2022-09-02T17:47:31.570Z,1.83
2022-09-02T17:49:59.484Z,1.90
2022-09-02T17:52:26.611Z,1.65
2022-09-02T17:54:54.555Z,2.08
2022-09-02T17:57:23.366Z,1.88
2022-09-02T17:59:51.414Z,1.85
2022-09-02T18:02:25.401Z,2.10
2022-09-02T18:05:11.205Z,2.17
2022-09-02T18:07:50.734Z,1.98
2022-09-02T18:10:17.994Z,1.58
2022-09-02T18:12:45.252Z,2.00
2022-09-02T18:15:16.731Z,1.48
2022-09-02T18:17:48.744Z,1.70
2022-09-02T18:20:24.417Z,2.00
2022-09-02T18:23:10.438Z,1.92
2022-09-02T18:25:45.790Z,2.20
2022-09-02T18:28:31.697Z,2.15
2022-09-02T18:31:05.892Z,2.10
2022-09-02T18:33:42.468Z,2.40
2022-09-02T18:36:28.511Z,1.77
2022-09-02T18:38:55.515Z,1.80
2022-09-02T18:41:37.548Z,2.35
2022-09-02T18:44:10.992Z,2.20
2022-09-02T18:46:59.532Z,2.35
2022-09-02T18:49:28.567Z,2.22
2022-09-02T18:51:57.691Z,2.67
2022-09-02T18:54:30.603Z,2.10
2022-09-02T18:59:31.787Z,1.80
2022-09-02T19:02:01.588Z,2.08
2022-09-02T19:04:29.691Z,2.22
2022-09-02T19:07:17.473Z,2.47
2022-09-02T19:09:44.720Z,2.28
2022-09-02T19:12:13.006Z,2.22
2022-09-02T19:14:40.993Z,2.22
2022-09-02T19:17:09.454Z,2.05
2022-09-02T19:19:36.466Z,2.28
2022-09-02T19:22:05.837Z,1.95
2022-09-02T19:24:57.053Z,1.90
2022-09-02T19:27:31.235Z,2.13
2022-09-02T19:30:04.074Z,2.33
2022-09-02T19:32:33.694Z,2.95
2022-09-02T19:35:02.004Z,2.35
2022-09-02T19:37:29.969Z,2.50
2022-09-02T19:40:03.791Z,2.10
2022-09-02T19:42:32.049Z,2.20
2022-09-02T19:44:59.844Z,2.40
2022-09-02T19:50:14.615Z,2.40
2022-09-02T19:52:45.667Z,2.22
2022-09-02T19:55:14.575Z,2.10
2022-09-02T19:57:41.831Z,2.17
2022-09-02T20:00:09.648Z,2.45
2022-09-02T20:02:40.486Z,1.88
2022-09-02T20:05:08.382Z,2.10
2022-09-02T20:07:35.867Z,2.20
2022-09-02T20:10:03.259Z,2.50
2022-09-02T20:12:34.805Z,2.25
2022-09-02T20:15:02.775Z,2.28
2022-09-02T20:17:30.550Z,2.20
2022-09-02T20:20:01.635Z,2.13
2022-09-02T20:22:31.870Z,2.15
2022-09-02T20:24:59.089Z,2.05
2022-09-02T20:27:35.389Z,2.22
2022-09-02T20:30:03.413Z,2.28
2022-09-02T20:32:44.786Z,2.22
2022-09-02T20:35:33.805Z,2.30
2022-09-02T20:38:11.137Z,2.20
2022-09-02T20:40:55.630Z,2.38
2022-09-02T20:43:28.763Z,2.60
2022-09-02T20:45:55.862Z,2.35
2022-09-02T20:48:27.420Z,2.80
2022-09-02T20:51:27.212Z,2.40
2022-09-02T20:54:10.566Z,2.60
2022-09-02T20:59:23.328Z,2.40
2022-09-02T21:01:54.827Z,2.40
2022-09-02T21:04:29.060Z,2.53
2022-09-02T21:07:01.814Z,2.50
2022-09-02T21:09:38.506Z,2.65
2022-09-02T21:12:31.489Z,2.53
2022-09-02T21:15:05.107Z,2.33
2022-09-02T21:17:37.485Z,2.45
2022-09-02T21:20:14.449Z,2.50
2022-09-02T21:22:44.589Z,2.33
2022-09-02T21:25:24.151Z,2.15
2022-09-02T21:27:54.607Z,2.13
2022-09-02T21:30:22.507Z,1.90
2022-09-02T21:32:56.603Z,2.10
2022-09-02T21:35:43.372Z,2.00
2022-09-02T21:38:10.542Z,1.75
2022-09-02T21:40:45.426Z,1.90
2022-09-02T21:43:23.946Z,1.73
2022-09-02T21:45:57.082Z,1.70
2022-09-02T21:50:54.251Z,1.65
2022-09-02T21:53:21.255Z,1.88
2022-09-02T21:55:52.145Z,1.85
2022-09-02T21:58:19.577Z,1.80
2022-09-02T22:00:51.189Z,1.88
2022-09-02T22:03:37.150Z,1.95
2022-09-02T22:06:18.699Z,1.80
2022-09-02T22:08:50.372Z,1.30
2022-09-02T22:11:33.214Z,1.73
2022-09-02T22:14:11.100Z,1.70
2022-09-02T22:16:45.981Z,1.90
2022-09-02T22:19:13.703Z,1.67
2022-09-02T22:21:49.136Z,1.85
2022-09-02T22:24:17.629Z,1.70
2022-09-02T22:26:51.333Z,1.63
2022-09-02T22:29:37.624Z,1.65
2022-09-02T22:32:08.195Z,1.58
2022-09-02T22:34:39.600Z,1.80
2022-09-02T22:37:10.159Z,1.63
2022-09-02T22:39:49.774Z,1.70
2022-09-02T22:42:35.057Z,1.70
2022-09-02T22:45:24.940Z,1.70
2022-09-02T22:48:15.267Z,1.70
2022-09-02T22:51:04.492Z,1.80
2022-09-02T22:53:31.771Z,1.52
2022-09-02T22:56:03.109Z,1.55
2022-09-02T22:58:43.053Z,1.60
2022-09-02T23:01:10.067Z,1.70
2022-09-02T23:03:56.090Z,1.60
2022-09-02T23:06:27.242Z,1.75
2022-09-02T23:08:57.821Z,1.73
2022-09-02T23:11:51.295Z,1.80
2022-09-02T23:14:19.540Z,1.80
2022-09-02T23:17:03.904Z,2.00
2022-09-02T23:19:46.988Z,1.80
2022-09-02T23:22:22.177Z,1.30
2022-09-02T23:25:21.914Z,1.70
2022-09-02T23:27:55.770Z,1.52
2022-09-02T23:30:23.202Z,1.70
2022-09-02T23:33:03.540Z,1.70
2022-09-02T23:35:40.974Z,1.65
2022-09-02T23:38:16.043Z,1.95
2022-09-02T23:40:49.431Z,1.60
2022-09-02T23:43:19.194Z,1.83
2022-09-02T23:45:47.454Z,1.75
2022-09-02T23:48:23.789Z,1.60
2022-09-02T23:51:06.695Z,1.55
2022-09-02T23:54:00.264Z,1.60
2022-09-02T23:56:51.353Z,1.50
2022-09-02T23:59:27.798Z,1.83
